Etusivu
METAR-TAF:

METAR-TAF

Lentoasemat :

Sotilaslentoasema

Niederstetten, Saksa

Leveyspiiri: 49-24N, Pituuspiiri: 009-58E, korkeus merenpinnasta: 468 m

Tämänhetkinen sää

Tämä raportti tehtiin 15 minuuttia sitten, kello 18.20 UTC
Tuuli 5 kn etelästä
Lämpötila 3°C
Kosteus 81%
Ilmanpaine 1003 hPa
Näkyvyys 10 km tai enemmän
Muutamia pilviä 4500 ft:n korkeudessa
Hajonneita pilviä 5700 ft:n korkeudessa

METAR: ETHN 121820Z 19005KT 9999 FEW045 BKN057 03/M00 Q1003 BLU BLU+ BECMG BLU

Aika: 19:35 (18:35 UTC)

Sääennuste

Tämä raportti tehtiin 4 tuntia ja 35 minuuttia sitten, kello 14.00 UTC
Ennuste voimassa 12. päivästä klo 15 UTC - 12. päivään klo 24 UTC
Tuuli 7 kn etelästä
Näkyvyys 10 km tai enemmän
Hajonneita pilviä 5000 ft:n korkeudessa

TAF: ETHN 121400Z 1215/1224 18007KT 9999 NSW BKN050

Säähavainnot ja -ennusteet yli 4000 lentoasemalta (METAR- ja TAF-raportit).

Käytössä olevat sääasemat on merkitty karttaan keltaisilla ja punaisilla pisteillä.

Aseta hiiri pisteen päälle nähdäksesi sääaseman nimen.

Klikkaa sitten nähdäksesi säähavainnot ja -ennusteet.

Kartan vaihtaminen: klikkaa mustalla rastilla varustettuja vihreitä pisteitä, niin voit zoomata sisään; viivalla varustettua vihreää pistettä, niin voit zoomata ulos tai vihreitä nuolia, niin pääset viereisille kartoille.


METAR-TAF: